Time,TemperatureF,DewpointF,PressureIn,WindDirection,WindDirectionDegrees,WindSpeedMPH,WindSpeedGustMPH,Humidity,HourlyPrecipIn,Conditions,Clouds,dailyrainin,SoftwareType,DateUTC
2013-10-18 00:11:00,59.8,59.0,29.93,West,261,0.0,1.0,97,0.00,,,0.43,weatherlink.com 1.10,2013-10-18 04:11:00,
2013-10-18 00:26:00,59.5,59.0,29.93,NW,310,0.0,0.0,98,0.00,,,0.43,weatherlink.com 1.10,2013-10-18 04:26:00,
2013-10-18 00:41:00,59.2,59.0,29.93,WNW,290,0.0,1.0,98,0.00,,,0.43,weatherlink.com 1.10,2013-10-18 04:41:00,
2013-10-18 00:56:00,58.8,58.0,29.93,WNW,286,0.0,2.0,97,0.00,,,0.43,weatherlink.com 1.10,2013-10-18 04:56:00,
2013-10-18 01:11:00,58.5,58.0,29.93,WNW,283,0.0,1.0,98,0.00,,,0.43,weatherlink.com 1.10,2013-10-18 05:11:00,
2013-10-18 01:26:00,58.0,58.0,29.93,WNW,300,0.0,1.0,98,0.00,,,0.43,weatherlink.com 1.10,2013-10-18 05:26:00,
2013-10-18 01:41:00,57.6,57.0,29.93,NW,304,0.0,2.0,97,0.00,,,0.43,weatherlink.com 1.10,2013-10-18 05:41:00,
2013-10-18 01:56:00,57.2,56.0,29.92,NW,307,0.0,1.0,97,0.00,,,0.43,weatherlink.com 1.10,2013-10-18 05:56:00,
2013-10-18 02:11:00,56.9,56.0,29.93,WNW,289,0.0,2.0,97,0.00,,,0.43,weatherlink.com 1.10,2013-10-18 06:11:00,
2013-10-18 02:26:00,56.6,56.0,29.92,West,267,0.0,1.0,97,0.00,,,0.43,weatherlink.com 1.10,2013-10-18 06:26:00,
2013-10-18 02:41:00,56.2,55.0,29.93,WNW,292,0.0,2.0,97,0.00,,,0.43,weatherlink.com 1.10,2013-10-18 06:41:00,
2013-10-18 02:56:00,55.9,55.0,29.93,WNW,300,0.0,1.0,98,0.00,,,0.43,weatherlink.com 1.10,2013-10-18 06:56:00,
2013-10-18 03:11:00,55.6,55.0,29.93,WNW,300,0.0,1.0,97,0.00,,,0.43,weatherlink.com 1.10,2013-10-18 07:11:00,
2013-10-18 03:26:00,55.5,55.0,29.93,WNW,290,0.0,0.0,98,0.00,,,0.43,weatherlink.com 1.10,2013-10-18 07:26:00,
2013-10-18 03:41:00,55.2,55.0,29.93,NNW,330,0.0,0.0,98,0.00,,,0.43,weatherlink.com 1.10,2013-10-18 07:41:00,
2013-10-18 03:56:00,55.0,55.0,29.93,NW,319,0.0,0.0,98,0.00,,,0.43,weatherlink.com 1.10,2013-10-18 07:56:00,
2013-10-18 04:11:00,54.7,54.0,29.93,WNW,288,0.0,0.0,98,0.00,,,0.43,weatherlink.com 1.10,2013-10-18 08:11:00,
2013-10-18 04:26:00,54.5,54.0,29.93,WNW,288,0.0,0.0,98,0.00,,,0.43,weatherlink.com 1.10,2013-10-18 08:26:00,
2013-10-18 04:41:00,54.3,54.0,29.93,WNW,293,0.0,0.0,98,0.00,,,0.43,weatherlink.com 1.10,2013-10-18 08:41:00,
2013-10-18 04:56:00,54.1,54.0,29.93,WNW,293,0.0,0.0,98,0.00,,,0.43,weatherlink.com 1.10,2013-10-18 08:56:00,
2013-10-18 05:11:00,53.9,53.0,29.93,WNW,293,0.0,0.0,98,0.00,,,0.43,weatherlink.com 1.10,2013-10-18 09:11:00,
2013-10-18 05:26:00,53.7,53.0,29.93,NW,325,0.0,1.0,98,0.00,,,0.43,weatherlink.com 1.10,2013-10-18 09:26:00,
2013-10-18 05:41:00,53.6,53.0,29.94,NNW,335,0.0,1.0,98,0.00,,,0.43,weatherlink.com 1.10,2013-10-18 09:41:00,
2013-10-18 05:56:00,53.4,53.0,29.94,NW,321,0.0,0.0,98,0.00,,,0.43,weatherlink.com 1.10,2013-10-18 09:56:00,
2013-10-18 06:11:00,53.2,53.0,29.94,North,352,0.0,0.0,98,0.00,,,0.43,weatherlink.com 1.10,2013-10-18 10:11:00,
2013-10-18 06:26:00,52.9,52.0,29.95,West,276,0.0,1.0,98,0.00,,,0.00,weatherlink.com 1.10,2013-10-18 10:26:00,
2013-10-18 06:41:00,52.6,52.0,29.95,NW,321,0.0,0.0,98,0.00,,,0.00,weatherlink.com 1.10,2013-10-18 10:41:00,
2013-10-18 06:56:00,52.4,52.0,29.96,NNE,17,0.0,1.0,98,0.00,,,0.00,weatherlink.com 1.10,2013-10-18 10:56:00,
2013-10-18 07:11:00,52.2,52.0,29.96,NW,313,0.0,1.0,98,0.00,,,0.00,weatherlink.com 1.10,2013-10-18 11:11:00,
2013-10-18 07:26:00,52.1,52.0,29.96,NW,307,0.0,1.0,98,0.00,,,0.00,weatherlink.com 1.10,2013-10-18 11:26:00,
2013-10-18 07:41:00,52.0,52.0,29.97,NNW,327,0.0,1.0,99,0.00,,,0.00,weatherlink.com 1.10,2013-10-18 11:41:00,
2013-10-18 07:56:00,51.9,52.0,29.97,NNW,331,0.0,1.0,99,0.00,,,0.00,weatherlink.com 1.10,2013-10-18 11:56:00,
2013-10-18 08:11:00,52.0,52.0,29.97,NW,313,0.0,2.0,99,0.00,,,0.00,weatherlink.com 1.10,2013-10-18 12:11:00,
2013-10-18 08:26:00,51.9,52.0,29.98,WSW,250,0.0,3.0,99,0.00,,,0.00,weatherlink.com 1.10,2013-10-18 12:26:00,
2013-10-18 08:41:00,51.8,52.0,29.99,NW,325,0.0,2.0,99,0.01,,,0.01,weatherlink.com 1.10,2013-10-18 12:41:00,
2013-10-18 08:57:00,52.5,53.0,29.99,West,275,1.0,1.0,100,0.01,,,0.01,weatherlink.com 1.10,2013-10-18 12:57:00,
2013-10-18 09:12:00,52.5,53.0,30.00,West,281,0.0,3.0,100,0.01,,,0.01,weatherlink.com 1.10,2013-10-18 13:12:00,
2013-10-18 09:27:00,52.6,52.0,30.00,WNW,290,0.0,4.0,99,0.01,,,0.01,weatherlink.com 1.10,2013-10-18 13:27:00,
2013-10-18 09:42:00,53.1,53.0,30.00,WNW,293,0.0,1.0,99,0.00,,,0.01,weatherlink.com 1.10,2013-10-18 13:42:00,
2013-10-18 09:57:00,53.8,53.0,30.01,WNW,291,0.0,2.0,98,0.00,,,0.01,weatherlink.com 1.10,2013-10-18 13:57:00,
2013-10-18 10:12:00,54.0,54.0,30.02,WNW,294,0.0,2.0,98,0.00,,,0.01,weatherlink.com 1.10,2013-10-18 14:12:00,
2013-10-18 10:27:00,54.0,53.0,30.02,West,279,0.0,2.0,97,0.00,,,0.01,weatherlink.com 1.10,2013-10-18 14:27:00,
2013-10-18 10:42:00,54.5,53.0,30.02,NNW,348,0.0,1.0,94,0.00,,,0.01,weatherlink.com 1.10,2013-10-18 14:42:00,
2013-10-18 10:57:00,55.4,54.0,30.02,WNW,298,0.0,1.0,94,0.00,,,0.01,weatherlink.com 1.10,2013-10-18 14:57:00,
2013-10-18 11:12:00,55.5,54.0,30.02,WNW,302,0.0,1.0,93,0.00,,,0.01,weatherlink.com 1.10,2013-10-18 15:12:00,
2013-10-18 11:27:00,57.3,55.0,30.02,WNW,302,0.0,2.0,91,0.00,,,0.01,weatherlink.com 1.10,2013-10-18 15:27:00,
2013-10-18 11:42:00,58.6,55.0,30.01,WNW,286,0.0,3.0,86,0.00,,,0.01,weatherlink.com 1.10,2013-10-18 15:42:00,
2013-10-18 11:57:00,60.3,56.0,30.01,NW,315,0.0,2.0,85,0.00,,,0.01,weatherlink.com 1.10,2013-10-18 15:57:00,
2013-10-18 12:12:00,61.8,56.0,30.01,West,275,0.0,3.0,82,0.00,,,0.01,weatherlink.com 1.10,2013-10-18 16:12:00,
2013-10-18 12:27:00,63.2,57.0,30.01,North,360,0.0,4.0,79,0.00,,,0.01,weatherlink.com 1.10,2013-10-18 16:27:00,
2013-10-18 12:42:00,64.8,59.0,30.00,NE,42,0.0,1.0,80,0.00,,,0.01,weatherlink.com 1.10,2013-10-18 16:42:00,
2013-10-18 12:57:00,65.3,57.0,29.99,WNW,300,0.0,4.0,75,0.00,,,0.01,weatherlink.com 1.10,2013-10-18 16:57:00,
2013-10-18 13:27:00,67.4,59.0,29.98,ENE,59,1.0,3.0,74,0.00,,,0.01,weatherlink.com 1.10,2013-10-18 17:27:00,
2013-10-18 13:42:00,67.8,57.0,29.97,East,91,0.0,4.0,68,0.00,,,0.01,weatherlink.com 1.10,2013-10-18 17:42:00,
2013-10-18 13:57:00,68.1,55.0,29.96,NNW,330,0.0,3.0,64,0.00,,,0.01,weatherlink.com 1.10,2013-10-18 17:57:00,
2013-10-18 14:13:00,68.3,55.0,29.96,NW,312,0.0,4.0,63,0.00,,,0.01,weatherlink.com 1.10,2013-10-18 18:13:00,
2013-10-18 14:28:00,69.0,56.0,29.95,NE,40,0.0,3.0,63,0.00,,,0.01,weatherlink.com 1.10,2013-10-18 18:28:00,
2013-10-18 14:43:00,69.3,56.0,29.96,West,268,0.0,1.0,62,0.00,,,0.01,weatherlink.com 1.10,2013-10-18 18:43:00,
2013-10-18 14:58:00,69.2,55.0,29.95,NNW,327,0.0,2.0,61,0.00,,,0.01,weatherlink.com 1.10,2013-10-18 18:58:00,
2013-10-18 15:13:00,69.4,56.0,29.95,NW,305,1.0,3.0,63,0.00,,,0.01,weatherlink.com 1.10,2013-10-18 19:13:00,
2013-10-18 15:28:00,68.8,55.0,29.95,NNW,346,0.0,2.0,61,0.00,,,0.01,weatherlink.com 1.10,2013-10-18 19:28:00,
2013-10-18 15:58:00,68.9,56.0,29.94,WNW,292,0.0,1.0,63,0.00,,,0.01,weatherlink.com 1.10,2013-10-18 19:58:00,
2013-10-18 16:13:00,68.4,54.0,29.95,WNW,295,0.0,1.0,60,0.00,,,0.01,weatherlink.com 1.10,2013-10-18 20:13:00,
2013-10-18 16:28:00,68.6,57.0,29.95,NE,51,0.0,2.0,66,0.00,,,0.01,weatherlink.com 1.10,2013-10-18 20:28:00,
2013-10-18 16:43:00,67.8,56.0,29.94,West,277,0.0,2.0,65,0.00,,,0.01,weatherlink.com 1.10,2013-10-18 20:43:00,
2013-10-18 16:58:00,67.7,57.0,29.94,WNW,297,0.0,1.0,69,0.00,,,0.01,weatherlink.com 1.10,2013-10-18 20:58:00,
2013-10-18 17:13:00,68.1,55.0,29.94,NW,322,0.0,1.0,63,0.00,,,0.01,weatherlink.com 1.10,2013-10-18 21:13:00,
2013-10-18 17:28:00,67.4,57.0,29.94,NW,322,0.0,0.0,69,0.00,,,0.01,weatherlink.com 1.10,2013-10-18 21:28:00,
2013-10-18 17:43:00,67.0,56.0,29.94,NW,322,0.0,0.0,69,0.00,,,0.01,weatherlink.com 1.10,2013-10-18 21:43:00,
2013-10-18 17:58:00,66.4,58.0,29.94,NW,322,0.0,0.0,73,0.00,,,0.01,weatherlink.com 1.10,2013-10-18 21:58:00,
2013-10-18 18:13:00,64.8,57.0,29.94,NW,322,0.0,0.0,75,0.00,,,0.01,weatherlink.com 1.10,2013-10-18 22:13:00,
2013-10-18 18:28:00,64.4,56.0,29.94,NW,322,0.0,0.0,73,0.00,,,0.01,weatherlink.com 1.10,2013-10-18 22:28:00,
2013-10-18 18:43:00,63.5,56.0,29.94,WNW,299,0.0,1.0,76,0.00,,,0.01,weatherlink.com 1.10,2013-10-18 22:43:00,
2013-10-18 18:58:00,62.5,57.0,29.95,WNW,299,0.0,0.0,81,0.00,,,0.01,weatherlink.com 1.10,2013-10-18 22:58:00,
2013-10-18 19:13:00,61.9,57.0,29.94,WNW,298,0.0,0.0,83,0.00,,,0.01,weatherlink.com 1.10,2013-10-18 23:13:00,
2013-10-18 19:28:00,61.6,57.0,29.94,WNW,298,0.0,0.0,86,0.00,,,0.01,weatherlink.com 1.10,2013-10-18 23:28:00,
2013-10-18 19:43:00,61.3,57.0,29.95,WNW,298,0.0,0.0,86,0.00,,,0.01,weatherlink.com 1.10,2013-10-18 23:43:00,
2013-10-18 19:58:00,61.0,58.0,29.95,WNW,299,0.0,0.0,88,0.00,,,0.01,weatherlink.com 1.10,2013-10-18 23:58:00,
2013-10-18 20:13:00,60.6,57.0,29.95,WNW,299,0.0,0.0,87,0.00,,,0.01,weatherlink.com 1.10,2013-10-19 00:13:00,
2013-10-18 20:28:00,60.3,56.0,29.95,WNW,299,0.0,0.0,86,0.00,,,0.01,weatherlink.com 1.10,2013-10-19 00:28:00,
2013-10-18 20:43:00,59.9,56.0,29.95,WNW,299,0.0,0.0,88,0.00,,,0.01,weatherlink.com 1.10,2013-10-19 00:43:00,
2013-10-18 20:58:00,59.4,56.0,29.96,WNW,299,0.0,0.0,88,0.00,,,0.01,weatherlink.com 1.10,2013-10-19 00:58:00,
2013-10-18 21:13:00,58.9,56.0,29.95,WNW,299,0.0,0.0,90,0.00,,,0.01,weatherlink.com 1.10,2013-10-19 01:13:00,
2013-10-18 21:28:00,58.3,55.0,29.95,WNW,299,0.0,0.0,89,0.00,,,0.01,weatherlink.com 1.10,2013-10-19 01:28:00,
2013-10-18 21:43:00,58.2,55.0,29.95,NW,307,0.0,0.0,90,0.00,,,0.01,weatherlink.com 1.10,2013-10-19 01:43:00,
2013-10-18 21:58:00,57.8,55.0,29.96,NW,307,0.0,0.0,91,0.00,,,0.01,weatherlink.com 1.10,2013-10-19 01:58:00,
2013-10-18 22:13:00,58.0,55.0,29.96,NW,307,0.0,0.0,91,0.00,,,0.01,weatherlink.com 1.10,2013-10-19 02:13:00,
2013-10-18 22:28:00,58.2,55.0,29.97,NW,306,0.0,0.0,89,0.00,,,0.01,weatherlink.com 1.10,2013-10-19 02:28:00,
2013-10-18 22:43:00,58.3,55.0,29.98,NW,306,0.0,0.0,89,0.00,,,0.01,weatherlink.com 1.10,2013-10-19 02:43:00,
2013-10-18 22:58:00,58.2,54.0,29.98,NW,305,0.0,0.0,86,0.00,,,0.01,weatherlink.com 1.10,2013-10-19 02:58:00,
2013-10-18 23:13:00,58.4,54.0,29.98,NW,305,0.0,0.0,85,0.00,,,0.01,weatherlink.com 1.10,2013-10-19 03:13:00,
2013-10-18 23:28:00,57.7,54.0,29.98,NW,305,0.0,0.0,86,0.00,,,0.01,weatherlink.com 1.10,2013-10-19 03:28:00,
2013-10-18 23:43:00,57.4,53.0,29.99,NW,305,0.0,0.0,86,0.00,,,0.01,weatherlink.com 1.10,2013-10-19 03:43:00,
2013-10-18 23:58:00,56.8,54.0,29.98,NW,305,0.0,0.0,89,0.00,,,0.01,weatherlink.com 1.10,2013-10-19 03:58:00,